createdAt,value
2019-01-14T00:00:20.506Z,83.22
2019-01-14T00:02:53.959Z,82.93
2019-01-14T00:05:25.526Z,82.75
2019-01-14T00:07:56.865Z,82.88
2019-01-14T00:10:28.182Z,82.77
2019-01-14T00:12:59.333Z,82.75
2019-01-14T00:15:30.477Z,82.71
2019-01-14T00:18:02.798Z,82.48
2019-01-14T00:20:33.984Z,82.53
2019-01-14T00:23:05.147Z,82.14
2019-01-14T00:25:36.266Z,82.38
2019-01-14T00:28:07.473Z,82.79
2019-01-14T00:30:38.448Z,83.00
2019-01-14T00:33:09.592Z,83.03
2019-01-14T00:35:40.659Z,83.04
2019-01-14T00:38:11.829Z,82.64
2019-01-14T00:40:42.873Z,82.48
2019-01-14T00:43:14.012Z,82.67
2019-01-14T00:45:45.294Z,82.68
2019-01-14T00:48:16.374Z,82.83
2019-01-14T00:50:47.519Z,83.05
2019-01-14T00:53:18.502Z,83.52
2019-01-14T00:55:49.493Z,83.28
2019-01-14T00:58:20.539Z,83.45
2019-01-14T01:00:51.755Z,83.45
2019-01-14T01:03:22.897Z,83.79
2019-01-14T01:05:53.927Z,83.98
2019-01-14T01:08:24.955Z,84.00
2019-01-14T01:10:56.042Z,84.20
2019-01-14T01:13:27.127Z,84.13
2019-01-14T01:15:58.314Z,83.94
2019-01-14T01:18:29.398Z,83.89
2019-01-14T01:21:00.606Z,83.64
2019-01-14T01:23:31.893Z,83.73
2019-01-14T01:26:02.881Z,83.92
2019-01-14T01:28:33.934Z,83.95
2019-01-14T01:31:05.108Z,83.99
2019-01-14T01:33:36.433Z,83.95
2019-01-14T01:36:07.731Z,84.30
2019-01-14T01:38:38.815Z,84.61
2019-01-14T01:41:09.964Z,84.89
2019-01-14T01:43:41.112Z,84.29
2019-01-14T01:46:12.251Z,83.97
2019-01-14T01:48:43.407Z,84.13
2019-01-14T01:51:14.546Z,84.34
2019-01-14T01:53:45.610Z,84.21
2019-01-14T01:56:16.905Z,83.99
2019-01-14T01:58:48.173Z,83.91
2019-01-14T02:01:19.227Z,84.13
2019-01-14T02:03:50.250Z,84.02
2019-01-14T02:06:21.358Z,83.65
2019-01-14T02:08:54.430Z,83.59
2019-01-14T02:11:25.537Z,83.98
2019-01-14T02:13:56.886Z,83.95
2019-01-14T02:16:27.999Z,83.93
2019-01-14T02:18:59.133Z,84.25
2019-01-14T02:21:30.264Z,84.33
2019-01-14T02:24:01.413Z,84.17
2019-01-14T02:26:32.446Z,84.31
2019-01-14T02:29:04.878Z,83.92
2019-01-14T02:31:35.915Z,83.84
2019-01-14T02:34:07.099Z,83.29
2019-01-14T02:36:38.147Z,83.33
2019-01-14T02:39:09.543Z,83.86
2019-01-14T02:41:40.691Z,83.20
2019-01-14T02:44:11.854Z,82.59
2019-01-14T02:46:43.133Z,82.78
2019-01-14T02:49:14.198Z,81.78
2019-01-14T02:51:45.284Z,80.15
2019-01-14T02:54:16.385Z,79.95
2019-01-14T02:56:47.505Z,79.61
2019-01-14T02:59:18.591Z,79.06
2019-01-14T03:01:49.662Z,78.50
2019-01-14T03:04:20.674Z,78.79
2019-01-14T03:06:57.770Z,78.31
2019-01-14T03:09:24.652Z,79.00
2019-01-14T03:11:55.725Z,78.72
2019-01-14T03:14:26.932Z,79.45
2019-01-14T03:16:58.051Z,79.19
2019-01-14T03:19:29.201Z,78.54
2019-01-14T03:22:00.315Z,78.61
2019-01-14T03:24:31.366Z,77.80
2019-01-14T03:27:02.479Z,77.43
2019-01-14T03:29:33.528Z,77.43
2019-01-14T03:32:04.652Z,78.18
2019-01-14T03:34:35.789Z,77.19
2019-01-14T03:37:06.913Z,76.85
2019-01-14T03:39:39.219Z,77.23
2019-01-14T03:42:10.270Z,77.02
2019-01-14T03:44:41.291Z,77.02
2019-01-14T03:47:12.597Z,76.97
2019-01-14T03:49:43.688Z,77.20
2019-01-14T03:52:14.740Z,77.27
2019-01-14T03:54:45.798Z,77.61
2019-01-14T03:57:16.911Z,77.85
2019-01-14T03:59:48.139Z,77.52
2019-01-14T04:02:19.259Z,77.04
2019-01-14T04:04:50.486Z,77.17
2019-01-14T04:07:21.540Z,77.34
2019-01-14T04:09:52.531Z,77.28
2019-01-14T04:12:24.682Z,77.48
2019-01-14T04:14:55.815Z,78.25
2019-01-14T04:17:26.870Z,78.60
2019-01-14T04:19:57.940Z,79.08
2019-01-14T04:22:28.987Z,78.92
2019-01-14T04:25:00.036Z,78.96
2019-01-14T04:27:31.136Z,78.90
2019-01-14T04:30:02.323Z,78.80
2019-01-14T04:32:33.414Z,79.21
2019-01-14T04:35:05.084Z,79.13
2019-01-14T04:37:36.221Z,79.47
2019-01-14T04:40:08.686Z,79.07
2019-01-14T04:42:40.095Z,79.12
2019-01-14T04:45:11.862Z,79.50
2019-01-14T04:47:42.982Z,79.17
2019-01-14T04:50:16.846Z,79.43
2019-01-14T04:52:48.050Z,79.41
2019-01-14T04:55:19.425Z,79.38
2019-01-14T04:57:50.447Z,79.41
2019-01-14T05:00:23.792Z,79.68
2019-01-14T05:02:54.931Z,78.99
2019-01-14T05:05:26.059Z,78.50
2019-01-14T05:07:57.179Z,78.11
2019-01-14T05:10:28.579Z,77.86
2019-01-14T05:12:59.699Z,77.85
2019-01-14T05:15:30.683Z,77.79
2019-01-14T05:18:01.649Z,78.07
2019-01-14T05:20:32.906Z,77.98
2019-01-14T05:23:04.060Z,77.97
2019-01-14T05:25:35.184Z,77.69
2019-01-14T05:28:06.619Z,77.95
2019-01-14T05:30:37.882Z,77.38
2019-01-14T05:33:09.012Z,77.60
2019-01-14T05:35:40.209Z,77.64
2019-01-14T05:38:11.338Z,77.60
2019-01-14T05:40:42.496Z,78.37
2019-01-14T05:43:13.522Z,78.21
2019-01-14T05:45:44.606Z,78.08
2019-01-14T05:48:15.765Z,78.35
2019-01-14T05:50:46.843Z,78.58
2019-01-14T05:53:17.957Z,78.77
2019-01-14T05:55:50.072Z,78.95
2019-01-14T05:58:21.117Z,79.05
2019-01-14T06:00:54.423Z,79.44
2019-01-14T06:03:25.542Z,79.19
2019-01-14T06:05:56.591Z,79.38
2019-01-14T06:08:27.719Z,79.22
2019-01-14T06:10:58.951Z,79.62
2019-01-14T06:13:30.079Z,79.70
2019-01-14T06:16:01.276Z,79.91
2019-01-14T06:18:32.314Z,80.03
2019-01-14T06:21:03.539Z,80.05
2019-01-14T06:23:34.735Z,80.45
2019-01-14T06:26:05.996Z,80.27
2019-01-14T06:28:38.095Z,80.23
2019-01-14T06:31:09.174Z,80.44
2019-01-14T06:33:40.570Z,79.76
2019-01-14T06:36:12.011Z,79.95
2019-01-14T06:38:43.253Z,80.05
2019-01-14T06:41:14.559Z,79.96
2019-01-14T06:43:45.684Z,79.92
2019-01-14T06:46:16.948Z,79.33
2019-01-14T06:48:48.059Z,79.78
2019-01-14T06:51:19.317Z,79.80
2019-01-14T06:53:50.296Z,79.69
2019-01-14T06:56:21.405Z,79.56
2019-01-14T06:58:52.370Z,79.52
2019-01-14T07:01:23.466Z,79.29
2019-01-14T07:03:54.509Z,79.55
2019-01-14T07:06:25.595Z,79.30
2019-01-14T07:08:56.836Z,79.27
2019-01-14T07:11:28.179Z,79.33
2019-01-14T07:13:59.445Z,79.45
2019-01-14T07:16:30.521Z,79.62
2019-01-14T07:19:01.618Z,79.61
2019-01-14T07:21:32.673Z,79.75
2019-01-14T07:24:03.847Z,80.05
2019-01-14T07:26:34.913Z,80.40
2019-01-14T07:29:07.193Z,80.25
2019-01-14T07:31:38.368Z,80.19
2019-01-14T07:34:09.482Z,80.47
2019-01-14T07:36:40.622Z,80.61
2019-01-14T07:39:11.794Z,80.69
2019-01-14T07:41:42.876Z,80.77
2019-01-14T07:44:13.915Z,81.22
2019-01-14T07:46:45.022Z,80.94
2019-01-14T07:49:16.015Z,80.92
2019-01-14T07:51:47.255Z,81.02
2019-01-14T07:54:18.249Z,81.09
2019-01-14T07:56:49.548Z,80.85
2019-01-14T07:59:20.597Z,80.03
2019-01-14T08:01:51.674Z,80.15
2019-01-14T08:04:22.827Z,80.08
2019-01-14T08:06:53.910Z,79.89
2019-01-14T08:09:24.977Z,79.91
2019-01-14T08:11:56.115Z,79.87
2019-01-14T08:14:27.216Z,80.27
2019-01-14T08:16:58.257Z,80.30
2019-01-14T08:19:29.328Z,80.17
2019-01-14T08:22:00.461Z,80.01
2019-01-14T08:24:31.608Z,79.86
2019-01-14T08:27:02.667Z,80.02
2019-01-14T08:29:33.787Z,79.77
2019-01-14T08:32:04.968Z,79.77
2019-01-14T08:34:36.102Z,79.66
2019-01-14T08:37:08.454Z,79.66
2019-01-14T08:39:40.822Z,79.37
2019-01-14T08:42:12.499Z,79.10
2019-01-14T08:44:44.340Z,79.01
2019-01-14T08:47:15.504Z,78.70
2019-01-14T08:49:46.569Z,78.68
2019-01-14T08:52:17.717Z,78.52
2019-01-14T08:54:48.700Z,78.91
2019-01-14T08:57:19.837Z,78.94
2019-01-14T08:59:50.806Z,78.62
2019-01-14T09:02:21.935Z,77.85
2019-01-14T09:04:53.037Z,77.87
2019-01-14T09:07:24.192Z,78.68
2019-01-14T09:09:55.253Z,78.43
2019-01-14T09:12:26.317Z,78.53
2019-01-14T09:14:58.371Z,78.68
2019-01-14T09:17:29.456Z,78.61
2019-01-14T09:20:00.695Z,79.01
2019-01-14T09:22:31.808Z,79.82
2019-01-14T09:25:02.905Z,79.44
2019-01-14T09:27:34.067Z,79.90
2019-01-14T09:30:08.376Z,80.34
2019-01-14T09:32:39.540Z,80.67
2019-01-14T09:35:10.692Z,80.85
2019-01-14T09:37:41.944Z,80.75
2019-01-14T09:40:15.199Z,81.26
2019-01-14T09:42:46.349Z,81.19
2019-01-14T09:45:17.479Z,80.59
2019-01-14T09:47:48.641Z,80.23
2019-01-14T09:50:19.712Z,80.79
2019-01-14T09:52:50.858Z,81.06
2019-01-14T09:55:22.062Z,80.98
2019-01-14T09:57:53.226Z,80.63
2019-01-14T10:00:24.359Z,80.44
2019-01-14T10:02:55.778Z,80.12
2019-01-14T10:05:26.786Z,80.37
2019-01-14T10:07:57.855Z,80.30
2019-01-14T10:10:28.978Z,80.64
2019-01-14T10:13:00.135Z,80.30
2019-01-14T10:15:31.227Z,80.36
2019-01-14T10:18:04.708Z,80.53
2019-01-14T10:20:35.766Z,81.02
2019-01-14T10:23:06.915Z,81.26
2019-01-14T10:25:38.003Z,81.41
2019-01-14T10:28:09.165Z,81.06
2019-01-14T10:30:40.543Z,81.25
2019-01-14T10:33:11.704Z,81.47
2019-01-14T10:35:42.893Z,81.77
2019-01-14T10:38:13.985Z,81.22
2019-01-14T10:40:45.119Z,81.08
2019-01-14T10:43:16.267Z,80.93
2019-01-14T10:45:47.430Z,81.45
2019-01-14T10:48:18.507Z,81.28
2019-01-14T10:50:49.628Z,82.05
2019-01-14T10:53:20.780Z,81.90
2019-01-14T10:55:51.895Z,81.89
2019-01-14T10:58:23.099Z,82.45
2019-01-14T11:00:54.094Z,82.43
2019-01-14T11:03:25.278Z,82.32
2019-01-14T11:05:56.259Z,82.12
2019-01-14T11:08:27.449Z,82.03
2019-01-14T11:10:58.619Z,81.77
2019-01-14T11:13:29.820Z,81.93
2019-01-14T11:16:00.876Z,82.09
2019-01-14T11:18:32.149Z,81.88
2019-01-14T11:21:03.295Z,82.01
2019-01-14T11:23:34.484Z,81.62
2019-01-14T11:26:11.153Z,81.46
2019-01-14T11:28:42.295Z,81.29
2019-01-14T11:31:13.413Z,81.07
2019-01-14T11:33:44.550Z,81.23
2019-01-14T11:36:15.669Z,81.31
2019-01-14T11:38:51.359Z,81.21
2019-01-14T11:41:23.812Z,81.11
2019-01-14T11:43:54.959Z,80.02
2019-01-14T11:46:26.001Z,80.35
2019-01-14T11:48:57.048Z,80.70
2019-01-14T11:51:28.103Z,80.63
2019-01-14T11:53:59.109Z,80.99
2019-01-14T11:56:30.223Z,81.06
2019-01-14T11:59:01.377Z,80.67
2019-01-14T12:01:32.523Z,80.54
2019-01-14T12:04:03.743Z,80.17
2019-01-14T12:06:34.781Z,79.69
2019-01-14T12:09:12.395Z,79.86
2019-01-14T12:11:43.699Z,80.02
2019-01-14T12:14:14.684Z,79.91
2019-01-14T12:16:45.732Z,80.04
2019-01-14T12:19:16.737Z,80.12
2019-01-14T12:21:47.877Z,80.34
2019-01-14T12:24:19.016Z,80.29
2019-01-14T12:26:50.201Z,80.48
2019-01-14T12:29:21.422Z,80.56
2019-01-14T12:31:52.484Z,81.02
2019-01-14T12:34:23.639Z,80.66
2019-01-14T12:36:54.765Z,80.51
2019-01-14T12:39:25.842Z,80.85
2019-01-14T12:41:56.935Z,81.77
2019-01-14T12:44:28.028Z,82.05
2019-01-14T12:46:59.171Z,81.74
2019-01-14T12:49:30.148Z,82.16
2019-01-14T12:52:01.353Z,82.20
2019-01-14T12:54:32.593Z,82.12
2019-01-14T12:57:03.673Z,82.65
2019-01-14T12:59:34.719Z,82.52
2019-01-14T13:02:05.795Z,82.51
2019-01-14T13:04:36.969Z,82.48
2019-01-14T13:07:08.135Z,82.14
2019-01-14T13:09:39.237Z,82.30
2019-01-14T13:12:10.384Z,82.12
2019-01-14T13:14:41.464Z,82.17
2019-01-14T13:17:12.577Z,82.18
2019-01-14T13:19:44.707Z,82.08
2019-01-14T13:22:15.816Z,81.84
2019-01-14T13:24:46.806Z,81.92
2019-01-14T13:27:17.961Z,81.89
2019-01-14T13:29:49.060Z,82.09
2019-01-14T13:32:20.190Z,82.13
2019-01-14T13:34:51.258Z,82.17
2019-01-14T13:37:22.337Z,82.20
2019-01-14T13:39:53.479Z,82.11
2019-01-14T13:42:24.447Z,82.73
2019-01-14T13:44:55.437Z,82.90
2019-01-14T13:47:26.490Z,82.43
2019-01-14T13:49:57.567Z,81.80
2019-01-14T13:52:28.562Z,81.56
2019-01-14T13:54:59.621Z,82.08
2019-01-14T13:57:30.723Z,82.71
2019-01-14T14:00:01.824Z,83.12
2019-01-14T14:02:33.851Z,83.67
2019-01-14T14:05:06.019Z,83.49
2019-01-14T14:07:37.200Z,83.97
2019-01-14T14:10:11.460Z,84.06
2019-01-14T14:12:42.651Z,84.40
2019-01-14T14:15:15.273Z,84.21
2019-01-14T14:17:46.402Z,84.49
2019-01-14T14:20:17.595Z,84.61
2019-01-14T14:22:48.974Z,84.88
2019-01-14T14:25:20.136Z,84.89
2019-01-14T14:27:51.190Z,84.96
2019-01-14T14:30:31.099Z,84.78
2019-01-14T14:33:02.305Z,84.89
2019-01-14T14:35:33.434Z,85.06
2019-01-14T14:38:05.759Z,85.07
2019-01-14T14:40:36.807Z,85.51
2019-01-14T14:43:07.961Z,85.73
2019-01-14T14:45:39.154Z,85.88
2019-01-14T14:48:10.247Z,85.78
2019-01-14T14:50:41.295Z,86.21
2019-01-14T14:53:13.346Z,86.04
2019-01-14T14:55:44.423Z,85.80
2019-01-14T14:58:15.576Z,85.57
2019-01-14T15:00:46.711Z,85.72
2019-01-14T15:03:17.791Z,85.32
2019-01-14T15:05:48.873Z,85.51
2019-01-14T15:08:19.917Z,85.44
2019-01-14T15:10:51.308Z,85.30
2019-01-14T15:13:22.333Z,85.20
2019-01-14T15:15:53.479Z,84.93
2019-01-14T15:18:24.552Z,84.87
2019-01-14T15:20:55.664Z,84.65
2019-01-14T15:23:26.648Z,84.62
2019-01-14T15:25:57.636Z,84.84
2019-01-14T15:28:28.631Z,84.38
2019-01-14T15:30:59.731Z,84.02
2019-01-14T15:33:30.767Z,83.81
2019-01-14T15:36:01.774Z,83.99
2019-01-14T15:38:32.912Z,83.59
2019-01-14T15:41:04.068Z,83.43
2019-01-14T15:43:35.389Z,83.44
2019-01-14T15:46:06.577Z,83.36
2019-01-14T15:48:37.558Z,83.41
2019-01-14T15:51:08.619Z,83.42
2019-01-14T15:53:39.679Z,83.40
2019-01-14T15:56:10.798Z,83.02
2019-01-14T15:58:41.919Z,82.94
2019-01-14T16:01:13.025Z,82.80
2019-01-14T16:03:44.070Z,82.89
2019-01-14T16:06:15.155Z,83.12
2019-01-14T16:08:46.289Z,82.94
2019-01-14T16:11:17.395Z,82.79
2019-01-14T16:13:48.498Z,82.86
2019-01-14T16:16:19.670Z,82.58
2019-01-14T16:18:50.792Z,82.40
2019-01-14T16:21:21.833Z,82.75
2019-01-14T16:23:52.976Z,82.47
2019-01-14T16:26:24.043Z,82.55
2019-01-14T16:28:55.087Z,82.55
2019-01-14T16:31:26.081Z,82.26
2019-01-14T16:33:57.068Z,82.46
2019-01-14T16:36:28.215Z,82.15
2019-01-14T16:38:59.344Z,82.58
2019-01-14T16:41:30.483Z,82.43
2019-01-14T16:44:01.616Z,82.35
2019-01-14T16:46:32.782Z,82.51
2019-01-14T16:49:03.828Z,82.76
2019-01-14T16:51:34.932Z,82.33
2019-01-14T16:54:06.057Z,82.19
2019-01-14T16:56:37.095Z,82.07
2019-01-14T16:59:08.232Z,82.22
2019-01-14T17:01:39.230Z,82.45
2019-01-14T17:04:10.274Z,82.46
2019-01-14T17:06:41.426Z,82.56
2019-01-14T17:09:12.583Z,81.92
2019-01-14T17:11:43.650Z,82.11
2019-01-14T17:14:15.942Z,82.22
2019-01-14T17:16:47.112Z,81.71
2019-01-14T17:19:18.246Z,82.00
2019-01-14T17:21:49.244Z,82.30
2019-01-14T17:24:20.231Z,82.21
2019-01-14T17:26:51.394Z,82.29
2019-01-14T17:29:22.486Z,81.88
2019-01-14T17:31:53.488Z,81.67
2019-01-14T17:34:24.545Z,81.52
2019-01-14T17:36:56.054Z,81.39
2019-01-14T17:39:27.124Z,81.83
2019-01-14T17:41:58.856Z,81.90
2019-01-14T17:44:29.993Z,81.66
2019-01-14T17:47:00.997Z,81.77
2019-01-14T17:49:32.054Z,82.33
2019-01-14T17:52:03.220Z,82.31
2019-01-14T17:54:34.353Z,82.46
2019-01-14T17:57:05.537Z,82.31
2019-01-14T17:59:36.679Z,82.65
2019-01-14T18:02:07.851Z,82.74
2019-01-14T18:04:39.046Z,83.46
2019-01-14T18:07:10.186Z,83.97
2019-01-14T18:09:41.175Z,83.04
2019-01-14T18:12:12.289Z,83.10
2019-01-14T18:14:43.401Z,83.26
2019-01-14T18:17:14.494Z,82.95
2019-01-14T18:19:46.048Z,83.23
2019-01-14T18:22:17.123Z,83.20
2019-01-14T18:24:48.180Z,82.83
2019-01-14T18:27:19.266Z,82.79
2019-01-14T18:29:50.351Z,82.75
2019-01-14T18:32:21.423Z,82.62
2019-01-14T18:34:52.564Z,82.64
2019-01-14T18:37:23.655Z,82.33
2019-01-14T18:39:54.783Z,82.05
2019-01-14T18:42:25.940Z,81.80
2019-01-14T18:44:56.983Z,81.74
2019-01-14T18:47:28.239Z,81.43
2019-01-14T18:49:59.266Z,81.18
2019-01-14T18:52:30.350Z,81.13
2019-01-14T18:55:01.403Z,80.66
2019-01-14T18:57:32.577Z,80.71
2019-01-14T19:00:04.748Z,80.60
2019-01-14T19:02:35.742Z,80.84
2019-01-14T19:05:07.120Z,81.16
2019-01-14T19:07:39.364Z,80.95
2019-01-14T19:10:10.960Z,81.18
2019-01-14T19:12:42.193Z,81.19
2019-01-14T19:15:15.199Z,81.46
2019-01-14T19:17:46.534Z,81.47
2019-01-14T19:20:23.233Z,80.97
2019-01-14T19:22:55.457Z,80.93
2019-01-14T19:25:26.696Z,80.98
2019-01-14T19:27:57.678Z,80.68
2019-01-14T19:30:28.828Z,80.54
2019-01-14T19:33:01.062Z,80.69
2019-01-14T19:35:33.099Z,80.59
2019-01-14T19:38:04.326Z,80.38
2019-01-14T19:40:35.459Z,80.52
2019-01-14T19:43:06.767Z,80.01
2019-01-14T19:45:37.891Z,79.26
2019-01-14T19:48:09.104Z,78.67
2019-01-14T19:50:40.200Z,78.63
2019-01-14T19:53:11.296Z,78.73
2019-01-14T19:55:42.421Z,79.12
2019-01-14T19:58:13.553Z,78.86
2019-01-14T20:00:44.649Z,78.62
2019-01-14T20:03:15.747Z,78.81
2019-01-14T20:05:46.887Z,78.66
2019-01-14T20:08:19.347Z,77.63
2019-01-14T20:10:50.415Z,78.22
2019-01-14T20:13:21.550Z,78.21
2019-01-14T20:15:52.615Z,78.29
2019-01-14T20:18:23.789Z,78.33
2019-01-14T20:20:54.876Z,78.57
2019-01-14T20:23:26.106Z,79.16
2019-01-14T20:25:57.186Z,79.35
2019-01-14T20:28:28.278Z,79.22
2019-01-14T20:30:59.280Z,79.35
2019-01-14T20:33:30.449Z,79.55
2019-01-14T20:36:01.577Z,79.33
2019-01-14T20:38:32.656Z,79.57
2019-01-14T20:41:04.076Z,79.44
2019-01-14T20:43:35.209Z,79.68
2019-01-14T20:46:06.328Z,79.49
2019-01-14T20:48:37.332Z,79.28
2019-01-14T20:51:08.460Z,79.36
2019-01-14T20:53:39.550Z,79.49
2019-01-14T20:56:10.843Z,79.57
2019-01-14T20:58:41.979Z,79.74
2019-01-14T21:01:13.027Z,79.33
2019-01-14T21:03:44.112Z,79.01
2019-01-14T21:06:15.245Z,79.40
2019-01-14T21:08:46.352Z,79.29
2019-01-14T21:11:23.810Z,79.28
2019-01-14T21:13:50.314Z,79.33
2019-01-14T21:16:21.370Z,79.05
2019-01-14T21:18:52.563Z,79.24
2019-01-14T21:21:23.688Z,79.54
2019-01-14T21:23:54.698Z,78.93
2019-01-14T21:26:25.857Z,78.78
2019-01-14T21:28:56.840Z,79.91
2019-01-14T21:31:27.909Z,81.36
2019-01-14T21:33:59.001Z,82.65
2019-01-14T21:36:30.121Z,82.40
2019-01-14T21:39:01.211Z,82.21
2019-01-14T21:41:33.392Z,81.29
2019-01-14T21:44:04.714Z,81.06
2019-01-14T21:46:35.871Z,80.89
2019-01-14T21:49:06.935Z,80.85
2019-01-14T21:51:38.065Z,80.31
2019-01-14T21:54:09.218Z,80.66
2019-01-14T21:56:40.354Z,80.64
2019-01-14T21:59:11.466Z,80.44
2019-01-14T22:01:42.530Z,80.89
2019-01-14T22:04:14.677Z,81.01
2019-01-14T22:06:45.785Z,80.37
2019-01-14T22:09:16.775Z,79.85
2019-01-14T22:11:47.857Z,80.05
2019-01-14T22:14:19.049Z,79.37
2019-01-14T22:16:50.057Z,79.74
2019-01-14T22:19:21.123Z,79.43
2019-01-14T22:21:52.124Z,79.67
2019-01-14T22:24:23.136Z,80.24
2019-01-14T22:26:54.198Z,79.96
2019-01-14T22:29:25.356Z,80.05
2019-01-14T22:31:56.457Z,79.40
2019-01-14T22:34:27.460Z,79.57
2019-01-14T22:36:58.451Z,79.44
2019-01-14T22:39:29.461Z,79.23
2019-01-14T22:42:00.559Z,79.58
2019-01-14T22:44:31.640Z,79.47
2019-01-14T22:47:02.808Z,79.75
2019-01-14T22:49:33.816Z,79.41
2019-01-14T22:52:05.070Z,79.62
2019-01-14T22:54:36.113Z,79.74
2019-01-14T22:57:07.109Z,79.62
2019-01-14T22:59:38.144Z,80.01
2019-01-14T23:02:09.885Z,79.50
2019-01-14T23:04:40.963Z,79.40
2019-01-14T23:07:11.951Z,79.27
2019-01-14T23:09:43.116Z,79.78
2019-01-14T23:12:14.184Z,79.83
2019-01-14T23:14:45.254Z,79.82
2019-01-14T23:17:16.323Z,80.44
2019-01-14T23:19:47.559Z,81.34
2019-01-14T23:22:18.619Z,81.51
2019-01-14T23:24:50.549Z,81.28
2019-01-14T23:27:21.724Z,81.14
2019-01-14T23:29:52.752Z,80.32
2019-01-14T23:32:23.830Z,79.47
2019-01-14T23:34:54.993Z,78.80
2019-01-14T23:37:26.048Z,78.68
2019-01-14T23:39:57.038Z,78.47
2019-01-14T23:42:28.234Z,78.74
2019-01-14T23:44:59.332Z,78.31
2019-01-14T23:47:30.387Z,78.33
2019-01-14T23:50:01.448Z,78.44
2019-01-14T23:52:32.497Z,78.01
2019-01-14T23:55:03.634Z,78.42
2019-01-14T23:57:34.687Z,77.43
